KLNQ Heliport (Boothville) Information

FAA: LNQ - ICAO: KLNQ

KLNQ Heliport Location

State Louisiana
County Plaquemines
City Boothville
KLNQ Heliport is 1 miles southwest of Boothville, LA.
Latitude 29-21-14.9040N
Longitude 089-26-09.2760W
Elevation 3ft

KLNQ Heliport METARs

METAR KLNQ 060635Z AUTO 00000KT 10SM CLR 27/25 A3002 RMK AO2 T02700252
Altimeter 30.02"
Temperature 27.0°C (80.6°F)
Wind 0° at 0KT
Clouds Skies are clear.
Visibility 10.0mi
Time observed: 2022-07-06T06:35:00Z

KLNQ Heliport Details

Status Operational
Activation July 1998
Ownership Private
Usage Private
Chart NEW ORLEANS
ATC on-site No
Beacon schedule N/A
Beacon color N/A

KLNQ Heliport Contacts

Owner PHI AVIATION LLC
Owner address 38963 HWY 23, BOOTHVILLE, LA 70038
Owner phone 504-534-2631
Manager CHRISTOPHER WANT
Manager address 6310 SELF ROAD, BELCHER, LA 71004
Manager phone (508) 579-9548

KLNQ Heliport (Boothville) Radio Frequencies

KLNQ (Heliport) Radio Frequencies

UNICOM 122.975
Common traffic advisory frequency (CTAF) N/A